sensor_id;sensor_type;location;lat;lon;timestamp;pressure;altitude;pressure_sealevel;temperature;humidity
12178;BME280;6152;48.728;9.256;2023-01-29T00:01:38;98134.47;;;-0.86;100.00
12178;BME280;6152;48.728;9.256;2023-01-29T00:04:04;98136.19;;;-0.82;100.00
12178;BME280;6152;48.728;9.256;2023-01-29T00:06:30;98136.16;;;-0.92;100.00
12178;BME280;6152;48.728;9.256;2023-01-29T00:08:57;98137.03;;;-0.87;100.00
12178;BME280;6152;48.728;9.256;2023-01-29T00:11:23;98132.78;;;-0.90;100.00
12178;BME280;6152;48.728;9.256;2023-01-29T00:13:51;98129.38;;;-0.89;100.00
12178;BME280;6152;48.728;9.256;2023-01-29T00:16:17;98125.97;;;-0.85;100.00
12178;BME280;6152;48.728;9.256;2023-01-29T00:18:43;98129.34;;;-0.86;100.00
12178;BME280;6152;48.728;9.256;2023-01-29T00:21:15;98129.38;;;-0.89;100.00
12178;BME280;6152;48.728;9.256;2023-01-29T00:23:42;98131.09;;;-1.00;100.00
12178;BME280;6152;48.728;9.256;2023-01-29T00:26:08;98137.03;;;-0.93;100.00
12178;BME280;6152;48.728;9.256;2023-01-29T00:28:34;98139.59;;;-0.98;100.00
12178;BME280;6152;48.728;9.256;2023-01-29T00:31:16;98137.88;;;-0.93;100.00
12178;BME280;6152;48.728;9.256;2023-01-29T00:33:42;98132.75;;;-0.99;100.00
12178;BME280;6152;48.728;9.256;2023-01-29T00:36:10;98132.75;;;-0.99;100.00
12178;BME280;6152;48.728;9.256;2023-01-29T00:38:37;98125.97;;;-0.98;100.00
12178;BME280;6152;48.728;9.256;2023-01-29T00:41:12;98122.53;;;-1.02;100.00
12178;BME280;6152;48.728;9.256;2023-01-29T00:43:58;98137.88;;;-0.94;100.00
12178;BME280;6152;48.728;9.256;2023-01-29T00:46:43;98118.31;;;-0.94;100.00
12178;BME280;6152;48.728;9.256;2023-01-29T00:49:10;98122.53;;;-0.93;100.00
12178;BME280;6152;48.728;9.256;2023-01-29T00:51:37;98124.25;;;-0.95;100.00
12178;BME280;6152;48.728;9.256;2023-01-29T00:54:04;98127.66;;;-1.04;100.00
12178;BME280;6152;48.728;9.256;2023-01-29T00:56:33;98129.38;;;-1.01;100.00
12178;BME280;6152;48.728;9.256;2023-01-29T00:58:59;98127.66;;;-0.99;100.00
12178;BME280;6152;48.728;9.256;2023-01-29T01:01:26;98138.75;;;-0.94;100.00
12178;BME280;6152;48.728;9.256;2023-01-29T01:04:11;98126.78;;;-0.96;100.00
12178;BME280;6152;48.728;9.256;2023-01-29T01:06:38;98120.84;;;-0.94;100.00
12178;BME280;6152;48.728;9.256;2023-01-29T01:09:06;98124.25;;;-0.92;100.00
12178;BME280;6152;48.728;9.256;2023-01-29T01:11:51;98125.13;;;-0.90;100.00
12178;BME280;6152;48.728;9.256;2023-01-29T01:14:18;98125.09;;;-0.85;100.00
12178;BME280;6152;48.728;9.256;2023-01-29T01:16:45;98125.97;;;-0.91;100.00
12178;BME280;6152;48.728;9.256;2023-01-29T01:19:12;98130.22;;;-0.93;100.00
12178;BME280;6152;48.728;9.256;2023-01-29T01:21:39;98129.38;;;-0.92;100.00
12178;BME280;6152;48.728;9.256;2023-01-29T01:24:05;98123.41;;;-0.92;100.00
12178;BME280;6152;48.728;9.256;2023-01-29T01:26:31;98131.91;;;-0.92;100.00
12178;BME280;6152;48.728;9.256;2023-01-29T01:28:58;98123.41;;;-0.91;100.00
12178;BME280;6152;48.728;9.256;2023-01-29T01:31:24;98119.16;;;-1.01;100.00
12178;BME280;6152;48.728;9.256;2023-01-29T01:33:50;98121.69;;;-1.01;100.00
12178;BME280;6152;48.728;9.256;2023-01-29T01:36:19;98120.88;;;-1.00;100.00
12178;BME280;6152;48.728;9.256;2023-01-29T01:38:45;98121.69;;;-1.01;100.00
12178;BME280;6152;48.728;9.256;2023-01-29T01:41:17;98120.00;;;-1.00;100.00
12178;BME280;6152;48.728;9.256;2023-01-29T01:44:01;98119.16;;;-1.01;100.00
12178;BME280;6152;48.728;9.256;2023-01-29T01:46:35;98121.69;;;-0.96;100.00
12178;BME280;6152;48.728;9.256;2023-01-29T01:51:30;98118.28;;;-0.92;100.00
12178;BME280;6152;48.728;9.256;2023-01-29T01:54:11;98119.16;;;-0.98;100.00
12178;BME280;6152;48.728;9.256;2023-01-29T01:56:44;98104.69;;;-1.04;100.00
12178;BME280;6152;48.728;9.256;2023-01-29T01:59:15;98108.06;;;-1.06;100.00
12178;BME280;6152;48.728;9.256;2023-01-29T02:01:46;98117.44;;;-1.05;100.00
12178;BME280;6152;48.728;9.256;2023-01-29T02:04:21;98124.25;;;-1.07;100.00
12178;BME280;6152;48.728;9.256;2023-01-29T02:07:08;98115.72;;;-1.06;100.00
12178;BME280;6152;48.728;9.256;2023-01-29T02:10:06;98117.44;;;-1.02;100.00
12178;BME280;6152;48.728;9.256;2023-01-29T02:12:33;98113.19;;;-0.95;100.00
12178;BME280;6152;48.728;9.256;2023-01-29T02:15:01;98115.75;;;-0.94;100.00
12178;BME280;6152;48.728;9.256;2023-01-29T02:17:28;98122.56;;;-0.88;100.00
12178;BME280;6152;48.728;9.256;2023-01-29T02:25:58;98120.84;;;-0.97;100.00
12178;BME280;6152;48.728;9.256;2023-01-29T02:28:43;98113.16;;;-1.17;100.00
12178;BME280;6152;48.728;9.256;2023-01-29T02:31:40;98128.50;;;-1.06;100.00
12178;BME280;6152;48.728;9.256;2023-01-29T02:34:21;98125.09;;;-1.08;100.00
12178;BME280;6152;48.728;9.256;2023-01-29T02:36:57;98123.38;;;-1.14;100.00
12178;BME280;6152;48.728;9.256;2023-01-29T02:39:35;98125.09;;;-1.07;100.00
12178;BME280;6152;48.728;9.256;2023-01-29T02:42:26;98127.66;;;-1.14;100.00
12178;BME280;6152;48.728;9.256;2023-01-29T02:48:10;98126.81;;;-1.04;100.00
12178;BME280;6152;48.728;9.256;2023-01-29T02:50:56;98127.66;;;-1.05;100.00
12178;BME280;6152;48.728;9.256;2023-01-29T02:53:40;98131.88;;;-1.19;100.00
12178;BME280;6152;48.728;9.256;2023-01-29T02:56:16;98130.16;;;-1.17;100.00
12178;BME280;6152;48.728;9.256;2023-01-29T02:59:22;98129.34;;;-1.13;100.00
12178;BME280;6152;48.728;9.256;2023-01-29T03:02:02;98124.22;;;-1.16;100.00
12178;BME280;6152;48.728;9.256;2023-01-29T03:04:33;98128.50;;;-1.06;100.00
12178;BME280;6152;48.728;9.256;2023-01-29T03:07:05;98120.84;;;-1.06;100.00
12178;BME280;6152;48.728;9.256;2023-01-29T03:09:33;98121.69;;;-1.09;100.00
12178;BME280;6152;48.728;9.256;2023-01-29T03:12:12;98121.66;;;-1.13;100.00
12178;BME280;6152;48.728;9.256;2023-01-29T03:14:55;98121.69;;;-1.12;100.00
12178;BME280;6152;48.728;9.256;2023-01-29T03:17:55;98125.09;;;-1.08;100.00
12178;BME280;6152;48.728;9.256;2023-01-29T03:20:34;98124.22;;;-1.10;100.00
12178;BME280;6152;48.728;9.256;2023-01-29T03:23:08;98120.84;;;-1.09;100.00
12178;BME280;6152;48.728;9.256;2023-01-29T03:25:36;98114.00;;;-1.13;100.00
12178;BME280;6152;48.728;9.256;2023-01-29T03:28:23;98117.44;;;-1.14;100.00
12178;BME280;6152;48.728;9.256;2023-01-29T03:31:11;98120.00;;;-1.11;100.00
12178;BME280;6152;48.728;9.256;2023-01-29T03:34:04;98118.28;;;-1.08;100.00
12178;BME280;6152;48.728;9.256;2023-01-29T03:37:02;98119.13;;;-1.10;100.00
12178;BME280;6152;48.728;9.256;2023-01-29T03:39:33;98120.84;;;-1.06;100.00
12178;BME280;6152;48.728;9.256;2023-01-29T03:47:48;98120.00;;;-1.05;100.00
12178;BME280;6152;48.728;9.256;2023-01-29T03:52:59;98121.66;;;-1.19;100.00
12178;BME280;6152;48.728;9.256;2023-01-29T03:58:28;98119.13;;;-1.25;100.00
12178;BME280;6152;48.728;9.256;2023-01-29T04:01:18;98125.06;;;-1.26;100.00
12178;BME280;6152;48.728;9.256;2023-01-29T04:03:59;98127.63;;;-1.22;100.00
12178;BME280;6152;48.728;9.256;2023-01-29T04:06:33;98123.38;;;-1.23;100.00
12178;BME280;6152;48.728;9.256;2023-01-29T04:09:16;98132.72;;;-1.23;100.00
12178;BME280;6152;48.728;9.256;2023-01-29T04:12:01;98124.22;;;-1.25;100.00
12178;BME280;6152;48.728;9.256;2023-01-29T04:14:29;98130.19;;;-1.25;100.00
12178;BME280;6152;48.728;9.256;2023-01-29T04:16:58;98131.88;;;-1.22;100.00
12178;BME280;6152;48.728;9.256;2023-01-29T04:19:25;98128.47;;;-1.14;100.00
12178;BME280;6152;48.728;9.256;2023-01-29T04:22:09;98130.19;;;-1.19;100.00
12178;BME280;6152;48.728;9.256;2023-01-29T04:24:40;98132.72;;;-1.20;100.00
12178;BME280;6152;48.728;9.256;2023-01-29T04:27:28;98132.72;;;-1.28;100.00
12178;BME280;6152;48.728;9.256;2023-01-29T04:31:04;98136.13;;;-1.26;100.00
12178;BME280;6152;48.728;9.256;2023-01-29T04:42:11;98141.25;;;-1.24;100.00
12178;BME280;6152;48.728;9.256;2023-01-29T04:47:33;98132.72;;;-1.17;100.00
12178;BME280;6152;48.728;9.256;2023-01-29T04:50:34;98125.06;;;-1.17;100.00
12178;BME280;6152;48.728;9.256;2023-01-29T04:53:36;98121.69;;;-1.18;100.00
12178;BME280;6152;48.728;9.256;2023-01-29T04:56:23;98114.88;;;-1.22;100.00
12178;BME280;6152;48.728;9.256;2023-01-29T04:59:03;98121.66;;;-1.22;100.00
12178;BME280;6152;48.728;9.256;2023-01-29T05:01:30;98125.94;;;-1.21;100.00
12178;BME280;6152;48.728;9.256;2023-01-29T05:04:04;98127.63;;;-1.20;100.00
12178;BME280;6152;48.728;9.256;2023-01-29T05:06:32;98120.81;;;-1.18;100.00
12178;BME280;6152;48.728;9.256;2023-01-29T05:09:01;98133.59;;;-1.20;100.00
12178;BME280;6152;48.728;9.256;2023-01-29T05:11:30;98128.47;;;-1.23;100.00
12178;BME280;6152;48.728;9.256;2023-01-29T05:13:58;98130.13;;;-1.34;100.00
12178;BME280;6152;48.728;9.256;2023-01-29T05:16:29;98137.81;;;-1.29;100.00
12178;BME280;6152;48.728;9.256;2023-01-29T05:18:55;98132.72;;;-1.28;100.00
12178;BME280;6152;48.728;9.256;2023-01-29T05:21:22;98134.44;;;-1.31;100.00
12178;BME280;6152;48.728;9.256;2023-01-29T05:24:19;98129.31;;;-1.31;100.00
12178;BME280;6152;48.728;9.256;2023-01-29T05:26:47;98124.19;;;-1.37;100.00
12178;BME280;6152;48.728;9.256;2023-01-29T05:29:33;98127.59;;;-1.41;100.00
12178;BME280;6152;48.728;9.256;2023-01-29T05:31:59;98134.38;;;-1.46;100.00
12178;BME280;6152;48.728;9.256;2023-01-29T05:34:25;98138.63;;;-1.44;100.00
12178;BME280;6152;48.728;9.256;2023-01-29T05:36:51;98141.19;;;-1.45;100.00
12178;BME280;6152;48.728;9.256;2023-01-29T05:39:17;98144.59;;;-1.46;100.00
12178;BME280;6152;48.728;9.256;2023-01-29T05:41:44;98131.81;;;-1.46;100.00
12178;BME280;6152;48.728;9.256;2023-01-29T05:44:10;98132.66;;;-1.47;100.00
12178;BME280;6152;48.728;9.256;2023-01-29T05:46:37;98125.88;;;-1.45;100.00
12178;BME280;6152;48.728;9.256;2023-01-29T05:49:04;98131.78;;;-1.48;100.00
12178;BME280;6152;48.728;9.256;2023-01-29T05:51:30;98133.53;;;-1.48;100.00
12178;BME280;6152;48.728;9.256;2023-01-29T05:53:56;98130.97;;;-1.48;100.00
12178;BME280;6152;48.728;9.256;2023-01-29T05:56:22;98115.66;;;-1.48;100.00
12178;BME280;6152;48.728;9.256;2023-01-29T05:58:50;98099.47;;;-1.47;100.00
12178;BME280;6152;48.728;9.256;2023-01-29T06:01:21;98089.28;;;-1.46;100.00
12178;BME280;6152;48.728;9.256;2023-01-29T06:03:48;98090.13;;;-1.44;100.00
12178;BME280;6152;48.728;9.256;2023-01-29T06:06:14;98085.03;;;-1.39;100.00
12178;BME280;6152;48.728;9.256;2023-01-29T06:08:41;98082.47;;;-1.48;100.00
12178;BME280;6152;48.728;9.256;2023-01-29T06:11:09;98087.56;;;-1.47;100.00
12178;BME280;6152;48.728;9.256;2023-01-29T06:13:36;98102.03;;;-1.44;100.00
12178;BME280;6152;48.728;9.256;2023-01-29T06:16:06;98106.28;;;-1.46;100.00
12178;BME280;6152;48.728;9.256;2023-01-29T06:18:32;98104.59;;;-1.47;100.00
12178;BME280;6152;48.728;9.256;2023-01-29T06:21:06;98096.09;;;-1.40;100.00
12178;BME280;6152;48.728;9.256;2023-01-29T06:23:36;98104.59;;;-1.46;100.00
12178;BME280;6152;48.728;9.256;2023-01-29T06:26:11;98107.97;;;-1.53;100.00
12178;BME280;6152;48.728;9.256;2023-01-29T06:28:38;98110.53;;;-1.52;100.00
12178;BME280;6152;48.728;9.256;2023-01-29T06:31:05;98109.66;;;-1.57;100.00
12178;BME280;6152;48.728;9.256;2023-01-29T06:33:32;98117.34;;;-1.54;100.00
12178;BME280;6152;48.728;9.256;2023-01-29T06:35:59;98118.22;;;-1.48;100.00
12178;BME280;6152;48.728;9.256;2023-01-29T06:38:26;98117.34;;;-1.50;100.00
12178;BME280;6152;48.728;9.256;2023-01-29T06:40:53;98111.41;;;-1.40;100.00
12178;BME280;6152;48.728;9.256;2023-01-29T06:43:19;98113.94;;;-1.49;100.00
12178;BME280;6152;48.728;9.256;2023-01-29T06:45:56;98124.16;;;-1.52;100.00
12178;BME280;6152;48.728;9.256;2023-01-29T06:48:25;98130.94;;;-1.59;100.00
12178;BME280;6152;48.728;9.256;2023-01-29T06:50:51;98126.66;;;-1.65;100.00
12178;BME280;6152;48.728;9.256;2023-01-29T06:53:20;98124.97;;;-1.58;100.00
12178;BME280;6152;48.728;9.256;2023-01-29T06:55:53;98117.31;;;-1.60;100.00
12178;BME280;6152;48.728;9.256;2023-01-29T06:58:19;98123.25;;;-1.67;100.00
12178;BME280;6152;48.728;9.256;2023-01-29T07:00:46;98124.94;;;-1.69;100.00
12178;BME280;6152;48.728;9.256;2023-01-29T07:03:12;98119.84;;;-1.64;100.00
12178;BME280;6152;48.728;9.256;2023-01-29T07:05:38;98128.38;;;-1.61;100.00
12178;BME280;6152;48.728;9.256;2023-01-29T07:08:04;98141.97;;;-1.60;100.00
12178;BME280;6152;48.728;9.256;2023-01-29T07:10:31;98136.03;;;-1.58;100.00
12178;BME280;6152;48.728;9.256;2023-01-29T07:12:58;98141.13;;;-1.55;100.00
12178;BME280;6152;48.728;9.256;2023-01-29T07:15:25;98142.84;;;-1.50;100.00
12178;BME280;6152;48.728;9.256;2023-01-29T07:18:01;98129.25;;;-1.49;100.00
12178;BME280;6152;48.728;9.256;2023-01-29T07:20:30;98133.53;;;-1.39;100.00
12178;BME280;6152;48.728;9.256;2023-01-29T07:22:57;98126.72;;;-1.40;100.00
12178;BME280;6152;48.728;9.256;2023-01-29T07:25:23;98141.19;;;-1.39;100.00
12178;BME280;6152;48.728;9.256;2023-01-29T07:27:50;98137.81;;;-1.35;100.00
12178;BME280;6152;48.728;9.256;2023-01-29T07:30:17;98140.38;;;-1.38;100.00
12178;BME280;6152;48.728;9.256;2023-01-29T07:32:43;98138.66;;;-1.42;100.00
12178;BME280;6152;48.728;9.256;2023-01-29T07:35:10;98143.75;;;-1.38;100.00
12178;BME280;6152;48.728;9.256;2023-01-29T07:37:36;98140.34;;;-1.37;100.00
12178;BME280;6152;48.728;9.256;2023-01-29T07:40:02;98142.91;;;-1.35;100.00
12178;BME280;6152;48.728;9.256;2023-01-29T07:42:30;98150.59;;;-1.32;100.00
12178;BME280;6152;48.728;9.256;2023-01-29T07:44:56;98157.41;;;-1.31;100.00
12178;BME280;6152;48.728;9.256;2023-01-29T07:47:22;98166.75;;;-1.27;100.00
12178;BME280;6152;48.728;9.256;2023-01-29T07:49:48;98164.22;;;-1.24;100.00
12178;BME280;6152;48.728;9.256;2023-01-29T07:52:14;98162.53;;;-1.19;100.00
12178;BME280;6152;48.728;9.256;2023-01-29T07:54:41;98159.13;;;-1.15;100.00
12178;BME280;6152;48.728;9.256;2023-01-29T07:57:07;98161.69;;;-1.06;100.00
12178;BME280;6152;48.728;9.256;2023-01-29T07:59:33;98168.53;;;-1.05;100.00
12178;BME280;6152;48.728;9.256;2023-01-29T08:01:59;98171.91;;;-1.03;100.00
12178;BME280;6152;48.728;9.256;2023-01-29T08:04:25;98178.75;;;-1.02;100.00
12178;BME280;6152;48.728;9.256;2023-01-29T08:06:51;98176.19;;;-1.00;100.00
12178;BME280;6152;48.728;9.256;2023-01-29T08:09:17;98173.59;;;-1.13;100.00
12178;BME280;6152;48.728;9.256;2023-01-29T08:11:43;98173.56;;;-1.20;100.00
12178;BME280;6152;48.728;9.256;2023-01-29T08:14:09;98173.56;;;-1.23;100.00
12178;BME280;6152;48.728;9.256;2023-01-29T08:16:36;98165.91;;;-1.20;100.00
12178;BME280;6152;48.728;9.256;2023-01-29T08:19:02;98171.06;;;-1.11;100.00
12178;BME280;6152;48.728;9.256;2023-01-29T08:21:28;98164.28;;;-1.05;100.00
12178;BME280;6152;48.728;9.256;2023-01-29T08:23:54;98168.53;;;-1.08;100.00
12178;BME280;6152;48.728;9.256;2023-01-29T08:26:20;98166.81;;;-1.06;100.00
12178;BME280;6152;48.728;9.256;2023-01-29T08:28:47;98169.38;;;-0.95;100.00
12178;BME280;6152;48.728;9.256;2023-01-29T08:31:17;98173.63;;;-1.02;100.00
12178;BME280;6152;48.728;9.256;2023-01-29T08:33:45;98181.31;;;-1.00;100.00
12178;BME280;6152;48.728;9.256;2023-01-29T08:36:11;98191.53;;;-1.00;100.00
12178;BME280;6152;48.728;9.256;2023-01-29T08:38:37;98194.09;;;-0.94;100.00
12178;BME280;6152;48.728;9.256;2023-01-29T08:41:04;98191.56;;;-0.87;100.00
12178;BME280;6152;48.728;9.256;2023-01-29T08:43:30;98193.25;;;-0.74;100.00
12178;BME280;6152;48.728;9.256;2023-01-29T08:45:56;98193.25;;;-0.75;100.00
12178;BME280;6152;48.728;9.256;2023-01-29T08:48:22;98194.09;;;-0.84;100.00
12178;BME280;6152;48.728;9.256;2023-01-29T08:50:50;98186.44;;;-0.84;100.00
12178;BME280;6152;48.728;9.256;2023-01-29T08:53:16;98187.28;;;-0.76;100.00
12178;BME280;6152;48.728;9.256;2023-01-29T08:55:45;98197.53;;;-0.70;100.00
12178;BME280;6152;48.728;9.256;2023-01-29T08:58:11;98199.25;;;-0.63;100.00
12178;BME280;6152;48.728;9.256;2023-01-29T09:00:38;98206.88;;;-0.72;100.00
12178;BME280;6152;48.728;9.256;2023-01-29T09:03:04;98208.59;;;-0.75;100.00
12178;BME280;6152;48.728;9.256;2023-01-29T09:05:34;98200.09;;;-0.62;100.00
12178;BME280;6152;48.728;9.256;2023-01-29T09:08:00;98203.50;;;-0.63;100.00
12178;BME280;6152;48.728;9.256;2023-01-29T09:10:26;98206.91;;;-0.57;100.00
12178;BME280;6152;48.728;9.256;2023-01-29T09:12:52;98206.06;;;-0.46;100.00
12178;BME280;6152;48.728;9.256;2023-01-29T09:15:18;98206.06;;;-0.37;100.00
12178;BME280;6152;48.728;9.256;2023-01-29T09:17:45;98206.91;;;-0.31;100.00
12178;BME280;6152;48.728;9.256;2023-01-29T09:20:11;98217.16;;;-0.22;100.00
12178;BME280;6152;48.728;9.256;2023-01-29T09:22:37;98209.47;;;-0.23;100.00
12178;BME280;6152;48.728;9.256;2023-01-29T09:25:04;98212.03;;;-0.14;100.00
12178;BME280;6152;48.728;9.256;2023-01-29T09:27:31;98212.84;;;-0.06;100.00
12178;BME280;6152;48.728;9.256;2023-01-29T09:29:57;98209.47;;;-0.11;100.00
12178;BME280;6152;48.728;9.256;2023-01-29T09:32:23;98212.84;;;-0.03;100.00
12178;BME280;6152;48.728;9.256;2023-01-29T09:34:49;98216.25;;;0.04;100.00
12178;BME280;6152;48.728;9.256;2023-01-29T09:37:15;98209.44;;;0.13;100.00
12178;BME280;6152;48.728;9.256;2023-01-29T09:39:43;98218.78;;;0.19;100.00
12178;BME280;6152;48.728;9.256;2023-01-29T09:47:20;98206.00;;;0.23;100.00
12178;BME280;6152;48.728;9.256;2023-01-29T09:52:57;98206.00;;;0.23;100.00
12178;BME280;6152;48.728;9.256;2023-01-29T09:55:40;98203.44;;;0.31;100.00
12178;BME280;6152;48.728;9.256;2023-01-29T09:58:30;98199.97;;;0.42;100.00
12178;BME280;6152;48.728;9.256;2023-01-29T10:18:03;98148.63;;;0.71;100.00
12178;BME280;6152;48.728;9.256;2023-01-29T10:21:03;98144.22;;;0.90;100.00
12178;BME280;6152;48.728;9.256;2023-01-29T10:23:37;98138.94;;;1.14;100.00
12178;BME280;6152;48.728;9.256;2023-01-29T10:26:10;98137.13;;;1.31;100.00
12178;BME280;6152;48.728;9.256;2023-01-29T10:28:44;98137.94;;;1.38;100.00
12178;BME280;6152;48.728;9.256;2023-01-29T10:31:19;98154.91;;;1.52;100.00
12178;BME280;6152;48.728;9.256;2023-01-29T10:34:02;98148.03;;;1.56;100.00
12178;BME280;6152;48.728;9.256;2023-01-29T10:36:39;98145.72;;;1.24;100.00
12178;BME280;6152;48.728;9.256;2023-01-29T10:39:21;98152.63;;;1.16;100.00
12178;BME280;6152;48.728;9.256;2023-01-29T10:42:01;98157.88;;;0.95;100.00
12178;BME280;6152;48.728;9.256;2023-01-29T10:45:04;98157.72;;;1.19;100.00
12178;BME280;6152;48.728;9.256;2023-01-29T10:51:20;98155.84;;;1.44;100.00
12178;BME280;6152;48.728;9.256;2023-01-29T10:59:20;98142.13;;;1.46;100.00
12178;BME280;6152;48.728;9.256;2023-01-29T11:01:55;98145.66;;;1.33;100.00
12178;BME280;6152;48.728;9.256;2023-01-29T11:04:22;98148.91;;;1.52;100.00
12178;BME280;6152;48.728;9.256;2023-01-29T11:06:49;98147.19;;;1.59;100.00
12178;BME280;6152;48.728;9.256;2023-01-29T11:11:57;98147.22;;;1.52;100.00
12178;BME280;6152;48.728;9.256;2023-01-29T11:17:21;98158.69;;;2.05;100.00
12178;BME280;6152;48.728;9.256;2023-01-29T11:19:49;98146.69;;;2.07;100.00
12178;BME280;6152;48.728;9.256;2023-01-29T11:22:27;98130.25;;;2.23;100.00
12178;BME280;6152;48.728;9.256;2023-01-29T11:25:16;98129.50;;;2.15;100.00
12178;BME280;6152;48.728;9.256;2023-01-29T11:27:57;98130.19;;;2.28;100.00
12178;BME280;6152;48.728;9.256;2023-01-29T11:30:32;98120.72;;;2.31;100.00
12178;BME280;6152;48.728;9.256;2023-01-29T11:33:22;98125.06;;;2.28;100.00
12178;BME280;6152;48.728;9.256;2023-01-29T11:35:48;98119.84;;;2.35;100.00
12178;BME280;6152;48.728;9.256;2023-01-29T11:38:25;98113.97;;;2.24;100.00
12178;BME280;6152;48.728;9.256;2023-01-29T11:40:52;98121.59;;;2.33;100.00
12178;BME280;6152;48.728;9.256;2023-01-29T11:43:29;98112.13;;;2.35;100.00
12178;BME280;6152;48.728;9.256;2023-01-29T11:46:04;98103.56;;;2.36;100.00
12178;BME280;6152;48.728;9.256;2023-01-29T11:51:27;98101.78;;;2.41;100.00
12178;BME280;6152;48.728;9.256;2023-01-29T11:54:04;98103.53;;;2.39;100.00
12178;BME280;6152;48.728;9.256;2023-01-29T11:56:42;98096.63;;;2.44;100.00
12178;BME280;6152;48.728;9.256;2023-01-29T11:59:41;98100.78;;;2.53;100.00
12178;BME280;6152;48.728;9.256;2023-01-29T12:02:31;98101.50;;;2.63;100.00
12178;BME280;6152;48.728;9.256;2023-01-29T12:05:12;98096.31;;;2.66;100.00
12178;BME280;6152;48.728;9.256;2023-01-29T12:07:42;98082.41;;;2.82;100.00
12178;BME280;6152;48.728;9.256;2023-01-29T12:10:33;98086.16;;;3.15;100.00
12178;BME280;6152;48.728;9.256;2023-01-29T12:15:32;98069.94;;;3.13;93.54
12178;BME280;6152;48.728;9.256;2023-01-29T12:20:37;98055.13;;;3.76;93.45
12178;BME280;6152;48.728;9.256;2023-01-29T12:33:50;98008.25;;;5.15;74.72
12178;BME280;6152;48.728;9.256;2023-01-29T12:36:36;97999.63;;;5.16;72.40
12178;BME280;6152;48.728;9.256;2023-01-29T12:39:03;97991.06;;;6.40;67.63
12178;BME280;6152;48.728;9.256;2023-01-29T12:44:23;97973.03;;;6.93;59.64
12178;BME280;6152;48.728;9.256;2023-01-29T12:46:55;97963.38;;;6.72;57.72
12178;BME280;6152;48.728;9.256;2023-01-29T12:49:29;97957.88;;;6.81;58.43
12178;BME280;6152;48.728;9.256;2023-01-29T12:53:09;97955.38;;;7.04;57.59
12178;BME280;6152;48.728;9.256;2023-01-29T12:55:17;97961.75;;;6.12;59.37
12178;BME280;6152;48.728;9.256;2023-01-29T12:58:08;97953.91;;;6.71;59.80
12178;BME280;6152;48.728;9.256;2023-01-29T13:00:41;97953.69;;;6.50;58.21
12178;BME280;6152;48.728;9.256;2023-01-29T13:05:55;97954.88;;;6.40;58.51
12178;BME280;6152;48.728;9.256;2023-01-29T13:08:38;97950.13;;;6.54;57.43
12178;BME280;6152;48.728;9.256;2023-01-29T13:11:16;97944.94;;;6.54;58.64
12178;BME280;6152;48.728;9.256;2023-01-29T13:14:00;97941.25;;;6.89;58.50
12178;BME280;6152;48.728;9.256;2023-01-29T13:16:35;97936.19;;;6.03;60.12
12178;BME280;6152;48.728;9.256;2023-01-29T13:19:08;97935.66;;;5.59;62.48
12178;BME280;6152;48.728;9.256;2023-01-29T13:21:41;97941.50;;;4.68;69.91
12178;BME280;6152;48.728;9.256;2023-01-29T13:24:15;97941.69;;;4.23;72.17
12178;BME280;6152;48.728;9.256;2023-01-29T13:26:47;97927.25;;;4.16;75.61
12178;BME280;6152;48.728;9.256;2023-01-29T13:29:24;97930.97;;;4.03;77.95
12178;BME280;6152;48.728;9.256;2023-01-29T13:31:53;97930.00;;;4.07;78.04
12178;BME280;6152;48.728;9.256;2023-01-29T13:34:23;97922.81;;;3.83;78.78
12178;BME280;6152;48.728;9.256;2023-01-29T13:36:59;97929.59;;;3.87;79.71
12178;BME280;6152;48.728;9.256;2023-01-29T13:39:31;97937.03;;;4.00;78.11
12178;BME280;6152;48.728;9.256;2023-01-29T13:42:00;97938.56;;;4.09;77.12
12178;BME280;6152;48.728;9.256;2023-01-29T13:44:32;97940.13;;;4.16;77.07
12178;BME280;6152;48.728;9.256;2023-01-29T13:47:03;97932.63;;;4.05;76.47
12178;BME280;6152;48.728;9.256;2023-01-29T13:49:41;97937.63;;;4.13;77.64
12178;BME280;6152;48.728;9.256;2023-01-29T14:06:05;97947.25;;;4.03;78.20
12178;BME280;6152;48.728;9.256;2023-01-29T14:11:26;97936.72;;;3.76;80.29
12178;BME280;6152;48.728;9.256;2023-01-29T14:13:53;97942.09;;;3.64;79.29
12178;BME280;6152;48.728;9.256;2023-01-29T14:18:55;97936.13;;;3.17;82.58
12178;BME280;6152;48.728;9.256;2023-01-29T14:21:25;97939.63;;;3.13;82.36
12178;BME280;6152;48.728;9.256;2023-01-29T14:34:48;97933.44;;;2.76;89.03
12178;BME280;6152;48.728;9.256;2023-01-29T14:39:44;97926.81;;;2.61;92.20
12178;BME280;6152;48.728;9.256;2023-01-29T14:42:38;97926.03;;;2.56;92.15
12178;BME280;6152;48.728;9.256;2023-01-29T14:45:25;97930.31;;;2.57;92.61
12178;BME280;6152;48.728;9.256;2023-01-29T14:47:54;97932.19;;;2.47;94.24
12178;BME280;6152;48.728;9.256;2023-01-29T14:55:47;97932.44;;;2.29;95.51
12178;BME280;6152;48.728;9.256;2023-01-29T14:58:18;97923.09;;;2.25;97.12
12178;BME280;6152;48.728;9.256;2023-01-29T15:00:50;97923.19;;;2.19;98.21
12178;BME280;6152;48.728;9.256;2023-01-29T15:05:55;97917.25;;;2.14;99.82
12178;BME280;6152;48.728;9.256;2023-01-29T15:08:36;97919.00;;;2.12;100.00
12178;BME280;6152;48.728;9.256;2023-01-29T15:11:08;97919.97;;;2.05;100.00
12178;BME280;6152;48.728;9.256;2023-01-29T15:14:07;97924.28;;;2.00;100.00
12178;BME280;6152;48.728;9.256;2023-01-29T15:19:21;97930.47;;;1.88;100.00
12178;BME280;6152;48.728;9.256;2023-01-29T15:22:10;97930.47;;;1.87;100.00
12178;BME280;6152;48.728;9.256;2023-01-29T15:24:38;97920.22;;;1.87;100.00
12178;BME280;6152;48.728;9.256;2023-01-29T15:27:09;97916.84;;;1.83;100.00
12178;BME280;6152;48.728;9.256;2023-01-29T15:29:37;97920.38;;;1.75;100.00
12178;BME280;6152;48.728;9.256;2023-01-29T15:32:04;97922.28;;;1.59;100.00
12178;BME280;6152;48.728;9.256;2023-01-29T15:34:31;97930.06;;;1.53;100.00
12178;BME280;6152;48.728;9.256;2023-01-29T15:36:58;97926.81;;;1.37;100.00
12178;BME280;6152;48.728;9.256;2023-01-29T15:39:24;97922.59;;;1.33;100.00
12178;BME280;6152;48.728;9.256;2023-01-29T15:42:11;97915.00;;;1.24;100.00
12178;BME280;6152;48.728;9.256;2023-01-29T15:44:44;97913.38;;;1.17;100.00
12178;BME280;6152;48.728;9.256;2023-01-29T15:47:10;97925.41;;;1.09;100.00
12178;BME280;6152;48.728;9.256;2023-01-29T15:49:39;97920.38;;;1.03;100.00
12178;BME280;6152;48.728;9.256;2023-01-29T15:52:12;97929.75;;;1.01;100.00
12178;BME280;6152;48.728;9.256;2023-01-29T15:54:40;97925.59;;;0.91;100.00
12178;BME280;6152;48.728;9.256;2023-01-29T15:57:24;97935.06;;;0.83;100.00